sensor_id;sensor_type;location;lat;lon;timestamp;pressure;altitude;pressure_sealevel;temperature
4421;BMP180;11824;51.178;13.546;2024-03-22T00:02:21;100873.00;;;9.90
4421;BMP180;11824;51.178;13.546;2024-03-22T00:04:48;100870.00;;;9.90
4421;BMP180;11824;51.178;13.546;2024-03-22T00:07:17;100873.00;;;9.90
4421;BMP180;11824;51.178;13.546;2024-03-22T00:09:43;100875.00;;;9.90
4421;BMP180;11824;51.178;13.546;2024-03-22T00:12:11;100876.00;;;9.90
4421;BMP180;11824;51.178;13.546;2024-03-22T00:14:38;100863.00;;;9.90
4421;BMP180;11824;51.178;13.546;2024-03-22T00:17:06;100860.00;;;9.90
4421;BMP180;11824;51.178;13.546;2024-03-22T00:19:32;100861.00;;;9.80
4421;BMP180;11824;51.178;13.546;2024-03-22T00:22:00;100870.00;;;9.90
4421;BMP180;11824;51.178;13.546;2024-03-22T00:24:28;100854.00;;;9.90
4421;BMP180;11824;51.178;13.546;2024-03-22T00:26:56;100845.00;;;9.80
4421;BMP180;11824;51.178;13.546;2024-03-22T00:29:23;100858.00;;;9.80
4421;BMP180;11824;51.178;13.546;2024-03-22T00:31:52;100855.00;;;9.80
4421;BMP180;11824;51.178;13.546;2024-03-22T00:34:19;100844.00;;;9.80
4421;BMP180;11824;51.178;13.546;2024-03-22T00:36:47;100828.00;;;9.80
4421;BMP180;11824;51.178;13.546;2024-03-22T00:39:14;100831.00;;;9.80
4421;BMP180;11824;51.178;13.546;2024-03-22T00:41:43;100829.00;;;9.80
4421;BMP180;11824;51.178;13.546;2024-03-22T00:44:09;100833.00;;;9.70
4421;BMP180;11824;51.178;13.546;2024-03-22T00:46:37;100825.00;;;9.70
4421;BMP180;11824;51.178;13.546;2024-03-22T00:49:04;100822.00;;;9.70
4421;BMP180;11824;51.178;13.546;2024-03-22T00:51:32;100834.00;;;9.70
4421;BMP180;11824;51.178;13.546;2024-03-22T00:53:58;100827.00;;;9.60
4421;BMP180;11824;51.178;13.546;2024-03-22T00:56:26;100815.00;;;9.50
4421;BMP180;11824;51.178;13.546;2024-03-22T00:58:54;100820.00;;;9.50
4421;BMP180;11824;51.178;13.546;2024-03-22T01:01:22;100810.00;;;9.40
4421;BMP180;11824;51.178;13.546;2024-03-22T01:03:49;100812.00;;;9.40
4421;BMP180;11824;51.178;13.546;2024-03-22T01:06:17;100796.00;;;9.30
4421;BMP180;11824;51.178;13.546;2024-03-22T01:08:49;100807.00;;;9.20
4421;BMP180;11824;51.178;13.546;2024-03-22T01:11:18;100797.00;;;9.10
4421;BMP180;11824;51.178;13.546;2024-03-22T01:13:45;100797.00;;;9.10
4421;BMP180;11824;51.178;13.546;2024-03-22T01:16:14;100792.00;;;9.00
4421;BMP180;11824;51.178;13.546;2024-03-22T01:18:41;100796.00;;;9.00
4421;BMP180;11824;51.178;13.546;2024-03-22T01:21:08;100796.00;;;8.90
4421;BMP180;11824;51.178;13.546;2024-03-22T01:23:35;100788.00;;;8.90
4421;BMP180;11824;51.178;13.546;2024-03-22T01:26:03;100791.00;;;8.90
4421;BMP180;11824;51.178;13.546;2024-03-22T01:28:30;100792.00;;;8.80
4421;BMP180;11824;51.178;13.546;2024-03-22T01:30:57;100790.00;;;8.80
4421;BMP180;11824;51.178;13.546;2024-03-22T01:33:26;100784.00;;;8.80
4421;BMP180;11824;51.178;13.546;2024-03-22T01:35:53;100786.00;;;8.80
4421;BMP180;11824;51.178;13.546;2024-03-22T01:38:20;100781.00;;;8.70
4421;BMP180;11824;51.178;13.546;2024-03-22T01:40:48;100780.00;;;8.60
4421;BMP180;11824;51.178;13.546;2024-03-22T01:43:15;100772.00;;;8.60
4421;BMP180;11824;51.178;13.546;2024-03-22T01:45:42;100766.00;;;8.60
4421;BMP180;11824;51.178;13.546;2024-03-22T01:48:09;100775.00;;;8.50
4421;BMP180;11824;51.178;13.546;2024-03-22T01:50:38;100767.00;;;8.50
4421;BMP180;11824;51.178;13.546;2024-03-22T01:53:05;100762.00;;;8.50
4421;BMP180;11824;51.178;13.546;2024-03-22T01:55:33;100762.00;;;8.50
4421;BMP180;11824;51.178;13.546;2024-03-22T01:58:00;100761.00;;;8.50
4421;BMP180;11824;51.178;13.546;2024-03-22T02:00:29;100768.00;;;8.50
4421;BMP180;11824;51.178;13.546;2024-03-22T02:02:57;100756.00;;;8.40
4421;BMP180;11824;51.178;13.546;2024-03-22T02:05:24;100754.00;;;8.40
4421;BMP180;11824;51.178;13.546;2024-03-22T02:07:52;100759.00;;;8.40
4421;BMP180;11824;51.178;13.546;2024-03-22T02:10:20;100740.00;;;8.40
4421;BMP180;11824;51.178;13.546;2024-03-22T02:12:47;100747.00;;;8.30
4421;BMP180;11824;51.178;13.546;2024-03-22T02:15:15;100743.00;;;8.30
4421;BMP180;11824;51.178;13.546;2024-03-22T02:17:42;100742.00;;;8.30
4421;BMP180;11824;51.178;13.546;2024-03-22T02:20:10;100731.00;;;8.30
4421;BMP180;11824;51.178;13.546;2024-03-22T02:22:38;100727.00;;;8.30
4421;BMP180;11824;51.178;13.546;2024-03-22T02:25:08;100724.00;;;8.30
4421;BMP180;11824;51.178;13.546;2024-03-22T02:27:34;100721.00;;;8.20
4421;BMP180;11824;51.178;13.546;2024-03-22T02:30:03;100717.00;;;8.20
4421;BMP180;11824;51.178;13.546;2024-03-22T02:32:29;100718.00;;;8.20
4421;BMP180;11824;51.178;13.546;2024-03-22T02:34:57;100725.00;;;8.20
4421;BMP180;11824;51.178;13.546;2024-03-22T02:37:24;100722.00;;;8.10
4421;BMP180;11824;51.178;13.546;2024-03-22T02:39:52;100722.00;;;8.10
4421;BMP180;11824;51.178;13.546;2024-03-22T02:42:20;100709.00;;;8.10
4421;BMP180;11824;51.178;13.546;2024-03-22T02:44:47;100708.00;;;8.00
4421;BMP180;11824;51.178;13.546;2024-03-22T02:47:14;100705.00;;;8.00
4421;BMP180;11824;51.178;13.546;2024-03-22T02:49:42;100702.00;;;8.00
4421;BMP180;11824;51.178;13.546;2024-03-22T02:52:09;100699.00;;;8.00
4421;BMP180;11824;51.178;13.546;2024-03-22T02:54:37;100692.00;;;8.00
4421;BMP180;11824;51.178;13.546;2024-03-22T02:57:04;100688.00;;;7.90
4421;BMP180;11824;51.178;13.546;2024-03-22T02:59:33;100686.00;;;7.90
4421;BMP180;11824;51.178;13.546;2024-03-22T03:02:00;100684.00;;;7.90
4421;BMP180;11824;51.178;13.546;2024-03-22T03:04:27;100692.00;;;7.90
4421;BMP180;11824;51.178;13.546;2024-03-22T03:06:54;100696.00;;;7.90
4421;BMP180;11824;51.178;13.546;2024-03-22T03:09:22;100690.00;;;7.90
4421;BMP180;11824;51.178;13.546;2024-03-22T03:11:49;100691.00;;;7.90
4421;BMP180;11824;51.178;13.546;2024-03-22T03:14:16;100683.00;;;7.90
4421;BMP180;11824;51.178;13.546;2024-03-22T03:16:44;100684.00;;;7.90
4421;BMP180;11824;51.178;13.546;2024-03-22T03:19:12;100689.00;;;7.90
4421;BMP180;11824;51.178;13.546;2024-03-22T03:21:40;100683.00;;;7.90
4421;BMP180;11824;51.178;13.546;2024-03-22T03:24:07;100677.00;;;7.90
4421;BMP180;11824;51.178;13.546;2024-03-22T03:26:35;100677.00;;;8.00
4421;BMP180;11824;51.178;13.546;2024-03-22T03:29:02;100675.00;;;7.90
4421;BMP180;11824;51.178;13.546;2024-03-22T03:31:30;100662.00;;;8.00
4421;BMP180;11824;51.178;13.546;2024-03-22T03:33:59;100658.00;;;8.00
4421;BMP180;11824;51.178;13.546;2024-03-22T03:36:26;100661.00;;;8.00
4421;BMP180;11824;51.178;13.546;2024-03-22T03:38:53;100655.00;;;8.00
4421;BMP180;11824;51.178;13.546;2024-03-22T03:41:21;100659.00;;;8.00
4421;BMP180;11824;51.178;13.546;2024-03-22T03:43:48;100647.00;;;8.00
4421;BMP180;11824;51.178;13.546;2024-03-22T03:46:16;100657.00;;;8.10
4421;BMP180;11824;51.178;13.546;2024-03-22T03:48:42;100655.00;;;8.00
4421;BMP180;11824;51.178;13.546;2024-03-22T03:51:11;100644.00;;;8.10
4421;BMP180;11824;51.178;13.546;2024-03-22T03:53:38;100653.00;;;8.10
4421;BMP180;11824;51.178;13.546;2024-03-22T03:56:06;100646.00;;;8.10
4421;BMP180;11824;51.178;13.546;2024-03-22T03:58:33;100643.00;;;8.10
4421;BMP180;11824;51.178;13.546;2024-03-22T04:01:05;100648.00;;;8.10
4421;BMP180;11824;51.178;13.546;2024-03-22T04:03:32;100647.00;;;8.10
4421;BMP180;11824;51.178;13.546;2024-03-22T04:06:00;100652.00;;;8.10
4421;BMP180;11824;51.178;13.546;2024-03-22T04:08:29;100635.00;;;8.10
4421;BMP180;11824;51.178;13.546;2024-03-22T04:10:57;100628.00;;;8.10
4421;BMP180;11824;51.178;13.546;2024-03-22T04:13:24;100635.00;;;8.10
4421;BMP180;11824;51.178;13.546;2024-03-22T04:15:53;100631.00;;;8.10
4421;BMP180;11824;51.178;13.546;2024-03-22T04:18:19;100632.00;;;8.10
4421;BMP180;11824;51.178;13.546;2024-03-22T04:20:54;100617.00;;;8.10
4421;BMP180;11824;51.178;13.546;2024-03-22T04:23:21;100623.00;;;8.10
4421;BMP180;11824;51.178;13.546;2024-03-22T04:25:54;100612.00;;;8.10
4421;BMP180;11824;51.178;13.546;2024-03-22T04:28:21;100616.00;;;8.10
4421;BMP180;11824;51.178;13.546;2024-03-22T04:30:58;100615.00;;;8.10
4421;BMP180;11824;51.178;13.546;2024-03-22T04:33:25;100612.00;;;8.10
4421;BMP180;11824;51.178;13.546;2024-03-22T04:35:54;100605.00;;;8.10
4421;BMP180;11824;51.178;13.546;2024-03-22T04:38:21;100600.00;;;8.10
4421;BMP180;11824;51.178;13.546;2024-03-22T04:40:49;100594.00;;;8.10
4421;BMP180;11824;51.178;13.546;2024-03-22T04:43:18;100597.00;;;8.00
4421;BMP180;11824;51.178;13.546;2024-03-22T04:45:45;100596.00;;;8.00
4421;BMP180;11824;51.178;13.546;2024-03-22T04:48:14;100590.00;;;8.00
4421;BMP180;11824;51.178;13.546;2024-03-22T04:50:41;100596.00;;;7.90
4421;BMP180;11824;51.178;13.546;2024-03-22T04:53:09;100600.00;;;7.90
4421;BMP180;11824;51.178;13.546;2024-03-22T04:55:36;100599.00;;;7.90
4421;BMP180;11824;51.178;13.546;2024-03-22T04:58:04;100590.00;;;7.90
4421;BMP180;11824;51.178;13.546;2024-03-22T05:00:32;100586.00;;;7.90
4421;BMP180;11824;51.178;13.546;2024-03-22T05:03:00;100578.00;;;7.90
4421;BMP180;11824;51.178;13.546;2024-03-22T05:05:27;100581.00;;;7.90
4421;BMP180;11824;51.178;13.546;2024-03-22T05:07:55;100574.00;;;7.90
4421;BMP180;11824;51.178;13.546;2024-03-22T05:10:21;100579.00;;;8.00
4421;BMP180;11824;51.178;13.546;2024-03-22T05:12:49;100571.00;;;8.00
4421;BMP180;11824;51.178;13.546;2024-03-22T05:15:16;100567.00;;;8.00
4421;BMP180;11824;51.178;13.546;2024-03-22T05:17:45;100565.00;;;8.10
4421;BMP180;11824;51.178;13.546;2024-03-22T05:20:12;100568.00;;;8.10
4421;BMP180;11824;51.178;13.546;2024-03-22T05:22:40;100571.00;;;8.20
4421;BMP180;11824;51.178;13.546;2024-03-22T05:25:08;100563.00;;;8.20
4421;BMP180;11824;51.178;13.546;2024-03-22T05:27:36;100555.00;;;8.30
4421;BMP180;11824;51.178;13.546;2024-03-22T05:30:03;100550.00;;;8.30
4421;BMP180;11824;51.178;13.546;2024-03-22T05:32:31;100547.00;;;8.40
4421;BMP180;11824;51.178;13.546;2024-03-22T05:35:00;100550.00;;;8.50
4421;BMP180;11824;51.178;13.546;2024-03-22T05:37:27;100550.00;;;8.50
4421;BMP180;11824;51.178;13.546;2024-03-22T05:39:55;100543.00;;;8.60
4421;BMP180;11824;51.178;13.546;2024-03-22T05:42:22;100540.00;;;8.60
4421;BMP180;11824;51.178;13.546;2024-03-22T05:44:49;100539.00;;;8.60
4421;BMP180;11824;51.178;13.546;2024-03-22T05:47:19;100545.00;;;8.70
4421;BMP180;11824;51.178;13.546;2024-03-22T05:49:47;100545.00;;;8.70
4421;BMP180;11824;51.178;13.546;2024-03-22T05:52:16;100542.00;;;8.80
4421;BMP180;11824;51.178;13.546;2024-03-22T05:54:43;100541.00;;;8.80
4421;BMP180;11824;51.178;13.546;2024-03-22T05:57:11;100540.00;;;8.90
4421;BMP180;11824;51.178;13.546;2024-03-22T05:59:38;100542.00;;;9.00
4421;BMP180;11824;51.178;13.546;2024-03-22T06:02:06;100538.00;;;9.00
4421;BMP180;11824;51.178;13.546;2024-03-22T06:04:32;100540.00;;;9.10
4421;BMP180;11824;51.178;13.546;2024-03-22T06:07:00;100538.00;;;9.10
4421;BMP180;11824;51.178;13.546;2024-03-22T06:09:31;100540.00;;;9.20
4421;BMP180;11824;51.178;13.546;2024-03-22T06:12:04;100538.00;;;9.30
4421;BMP180;11824;51.178;13.546;2024-03-22T06:14:31;100537.00;;;9.40
4421;BMP180;11824;51.178;13.546;2024-03-22T06:16:59;100530.00;;;9.60
4421;BMP180;11824;51.178;13.546;2024-03-22T06:19:25;100532.00;;;9.70
4421;BMP180;11824;51.178;13.546;2024-03-22T06:21:53;100533.00;;;9.80
4421;BMP180;11824;51.178;13.546;2024-03-22T06:24:20;100536.00;;;10.00
4421;BMP180;11824;51.178;13.546;2024-03-22T06:26:49;100530.00;;;10.10
4421;BMP180;11824;51.178;13.546;2024-03-22T06:29:16;100519.00;;;10.30
4421;BMP180;11824;51.178;13.546;2024-03-22T06:31:43;100511.00;;;10.50
4421;BMP180;11824;51.178;13.546;2024-03-22T06:34:10;100511.00;;;10.60
4421;BMP180;11824;51.178;13.546;2024-03-22T06:36:38;100508.00;;;10.70
4421;BMP180;11824;51.178;13.546;2024-03-22T06:39:05;100496.00;;;10.80
4421;BMP180;11824;51.178;13.546;2024-03-22T06:41:35;100485.00;;;10.90
4421;BMP180;11824;51.178;13.546;2024-03-22T06:44:03;100498.00;;;11.00
4421;BMP180;11824;51.178;13.546;2024-03-22T06:46:31;100493.00;;;11.00
4421;BMP180;11824;51.178;13.546;2024-03-22T06:48:58;100494.00;;;11.10
4421;BMP180;11824;51.178;13.546;2024-03-22T06:51:26;100486.00;;;11.20
4421;BMP180;11824;51.178;13.546;2024-03-22T06:53:53;100486.00;;;11.20
4421;BMP180;11824;51.178;13.546;2024-03-22T06:56:20;100501.00;;;11.30
4421;BMP180;11824;51.178;13.546;2024-03-22T06:58:47;100494.00;;;11.40
4421;BMP180;11824;51.178;13.546;2024-03-22T07:01:17;100494.00;;;11.40
4421;BMP180;11824;51.178;13.546;2024-03-22T07:03:43;100489.00;;;11.50
4421;BMP180;11824;51.178;13.546;2024-03-22T07:06:13;100485.00;;;11.50
4421;BMP180;11824;51.178;13.546;2024-03-22T07:08:40;100487.00;;;11.60
4421;BMP180;11824;51.178;13.546;2024-03-22T07:11:08;100478.00;;;11.70
4421;BMP180;11824;51.178;13.546;2024-03-22T07:13:35;100486.00;;;11.70
4421;BMP180;11824;51.178;13.546;2024-03-22T07:16:04;100472.00;;;11.80
4421;BMP180;11824;51.178;13.546;2024-03-22T07:18:32;100482.00;;;11.80
4421;BMP180;11824;51.178;13.546;2024-03-22T07:21:00;100483.00;;;11.80
4421;BMP180;11824;51.178;13.546;2024-03-22T07:23:27;100489.00;;;11.90
4421;BMP180;11824;51.178;13.546;2024-03-22T07:25:56;100495.00;;;11.90
4421;BMP180;11824;51.178;13.546;2024-03-22T07:28:22;100491.00;;;12.00
4421;BMP180;11824;51.178;13.546;2024-03-22T07:30:50;100486.00;;;12.00
4421;BMP180;11824;51.178;13.546;2024-03-22T07:33:17;100477.00;;;12.10
4421;BMP180;11824;51.178;13.546;2024-03-22T07:35:46;100481.00;;;12.10
4421;BMP180;11824;51.178;13.546;2024-03-22T07:38:13;100473.00;;;12.10
4421;BMP180;11824;51.178;13.546;2024-03-22T07:40:41;100467.00;;;12.20
4421;BMP180;11824;51.178;13.546;2024-03-22T07:43:07;100471.00;;;12.30
4421;BMP180;11824;51.178;13.546;2024-03-22T07:45:35;100471.00;;;12.30
4421;BMP180;11824;51.178;13.546;2024-03-22T07:48:02;100472.00;;;12.40
4421;BMP180;11824;51.178;13.546;2024-03-22T07:50:30;100460.00;;;12.50
4421;BMP180;11824;51.178;13.546;2024-03-22T07:52:58;100451.00;;;12.60
4421;BMP180;11824;51.178;13.546;2024-03-22T07:55:26;100457.00;;;12.70
4421;BMP180;11824;51.178;13.546;2024-03-22T07:57:53;100449.00;;;12.80
4421;BMP180;11824;51.178;13.546;2024-03-22T08:00:21;100464.00;;;12.90
4421;BMP180;11824;51.178;13.546;2024-03-22T08:02:47;100454.00;;;12.90
4421;BMP180;11824;51.178;13.546;2024-03-22T08:05:15;100449.00;;;13.00
4421;BMP180;11824;51.178;13.546;2024-03-22T08:07:42;100453.00;;;13.10
4421;BMP180;11824;51.178;13.546;2024-03-22T08:10:11;100448.00;;;13.10
4421;BMP180;11824;51.178;13.546;2024-03-22T08:12:38;100443.00;;;13.20
4421;BMP180;11824;51.178;13.546;2024-03-22T08:15:07;100443.00;;;13.20
4421;BMP180;11824;51.178;13.546;2024-03-22T08:17:34;100434.00;;;13.30
4421;BMP180;11824;51.178;13.546;2024-03-22T08:20:02;100430.00;;;13.30
4421;BMP180;11824;51.178;13.546;2024-03-22T08:22:30;100425.00;;;13.40
4421;BMP180;11824;51.178;13.546;2024-03-22T08:24:58;100431.00;;;13.50
4421;BMP180;11824;51.178;13.546;2024-03-22T08:27:26;100432.00;;;13.60
4421;BMP180;11824;51.178;13.546;2024-03-22T08:29:53;100438.00;;;13.80
4421;BMP180;11824;51.178;13.546;2024-03-22T08:32:20;100429.00;;;13.90
4421;BMP180;11824;51.178;13.546;2024-03-22T08:34:48;100417.00;;;14.00
4421;BMP180;11824;51.178;13.546;2024-03-22T08:37:15;100433.00;;;14.10
4421;BMP180;11824;51.178;13.546;2024-03-22T08:39:42;100438.00;;;14.20
4421;BMP180;11824;51.178;13.546;2024-03-22T08:42:09;100428.00;;;14.30
4421;BMP180;11824;51.178;13.546;2024-03-22T08:44:38;100429.00;;;14.40
4421;BMP180;11824;51.178;13.546;2024-03-22T08:47:05;100427.00;;;14.50
4421;BMP180;11824;51.178;13.546;2024-03-22T08:49:33;100414.00;;;14.50
4421;BMP180;11824;51.178;13.546;2024-03-22T08:52:02;100424.00;;;14.60
4421;BMP180;11824;51.178;13.546;2024-03-22T08:54:30;100413.00;;;14.70
4421;BMP180;11824;51.178;13.546;2024-03-22T08:56:57;100408.00;;;14.70
4421;BMP180;11824;51.178;13.546;2024-03-22T08:59:25;100420.00;;;14.80
4421;BMP180;11824;51.178;13.546;2024-03-22T09:01:54;100415.00;;;14.90
4421;BMP180;11824;51.178;13.546;2024-03-22T09:04:22;100413.00;;;15.00
4421;BMP180;11824;51.178;13.546;2024-03-22T09:06:48;100415.00;;;15.10
4421;BMP180;11824;51.178;13.546;2024-03-22T09:09:16;100415.00;;;15.10
4421;BMP180;11824;51.178;13.546;2024-03-22T09:11:43;100411.00;;;15.20
4421;BMP180;11824;51.178;13.546;2024-03-22T09:14:11;100423.00;;;15.30
4421;BMP180;11824;51.178;13.546;2024-03-22T09:16:38;100410.00;;;15.40
4421;BMP180;11824;51.178;13.546;2024-03-22T09:19:07;100407.00;;;15.40
4421;BMP180;11824;51.178;13.546;2024-03-22T09:21:34;100388.00;;;15.50
4421;BMP180;11824;51.178;13.546;2024-03-22T09:24:01;100400.00;;;15.50
4421;BMP180;11824;51.178;13.546;2024-03-22T09:26:29;100394.00;;;15.50
4421;BMP180;11824;51.178;13.546;2024-03-22T09:28:57;100390.00;;;15.50
4421;BMP180;11824;51.178;13.546;2024-03-22T09:31:24;100388.00;;;15.60
4421;BMP180;11824;51.178;13.546;2024-03-22T09:33:52;100380.00;;;15.70
4421;BMP180;11824;51.178;13.546;2024-03-22T09:36:20;100376.00;;;15.80
4421;BMP180;11824;51.178;13.546;2024-03-22T09:38:48;100375.00;;;15.90
4421;BMP180;11824;51.178;13.546;2024-03-22T09:41:15;100368.00;;;16.00
4421;BMP180;11824;51.178;13.546;2024-03-22T09:43:44;100380.00;;;16.10
4421;BMP180;11824;51.178;13.546;2024-03-22T09:46:14;100376.00;;;16.20
4421;BMP180;11824;51.178;13.546;2024-03-22T09:48:42;100374.00;;;16.30
4421;BMP180;11824;51.178;13.546;2024-03-22T09:51:09;100366.00;;;16.30
4421;BMP180;11824;51.178;13.546;2024-03-22T09:53:40;100366.00;;;16.30
4421;BMP180;11824;51.178;13.546;2024-03-22T09:56:09;100366.00;;;16.30
4421;BMP180;11824;51.178;13.546;2024-03-22T09:58:39;100359.00;;;16.30
4421;BMP180;11824;51.178;13.546;2024-03-22T10:01:06;100362.00;;;16.30
4421;BMP180;11824;51.178;13.546;2024-03-22T10:03:34;100349.00;;;16.40
4421;BMP180;11824;51.178;13.546;2024-03-22T10:06:01;100348.00;;;16.50
4421;BMP180;11824;51.178;13.546;2024-03-22T10:08:29;100335.00;;;16.60
4421;BMP180;11824;51.178;13.546;2024-03-22T10:10:57;100348.00;;;16.70
4421;BMP180;11824;51.178;13.546;2024-03-22T10:13:25;100338.00;;;16.80
4421;BMP180;11824;51.178;13.546;2024-03-22T10:15:52;100336.00;;;16.90
4421;BMP180;11824;51.178;13.546;2024-03-22T10:18:20;100332.00;;;17.00
4421;BMP180;11824;51.178;13.546;2024-03-22T10:20:58;100336.00;;;17.00
4421;BMP180;11824;51.178;13.546;2024-03-22T10:23:26;100337.00;;;17.10
4421;BMP180;11824;51.178;13.546;2024-03-22T10:25:53;100334.00;;;17.10
4421;BMP180;11824;51.178;13.546;2024-03-22T10:28:22;100335.00;;;17.20
4421;BMP180;11824;51.178;13.546;2024-03-22T10:30:50;100325.00;;;17.20
4421;BMP180;11824;51.178;13.546;2024-03-22T10:33:19;100323.00;;;17.30
4421;BMP180;11824;51.178;13.546;2024-03-22T10:35:47;100320.00;;;17.30
4421;BMP180;11824;51.178;13.546;2024-03-22T10:38:17;100310.00;;;17.40
4421;BMP180;11824;51.178;13.546;2024-03-22T10:40:45;100310.00;;;17.40
4421;BMP180;11824;51.178;13.546;2024-03-22T10:43:13;100310.00;;;17.50
4421;BMP180;11824;51.178;13.546;2024-03-22T10:45:42;100303.00;;;17.50
4421;BMP180;11824;51.178;13.546;2024-03-22T10:48:11;100302.00;;;17.60
4421;BMP180;11824;51.178;13.546;2024-03-22T10:50:40;100309.00;;;17.70
4421;BMP180;11824;51.178;13.546;2024-03-22T10:53:11;100301.00;;;17.80
4421;BMP180;11824;51.178;13.546;2024-03-22T10:55:43;100302.00;;;17.80
4421;BMP180;11824;51.178;13.546;2024-03-22T10:58:15;100297.00;;;17.90
4421;BMP180;11824;51.178;13.546;2024-03-22T11:00:44;100301.00;;;17.90
4421;BMP180;11824;51.178;13.546;2024-03-22T11:03:13;100293.00;;;17.90
4421;BMP180;11824;51.178;13.546;2024-03-22T11:05:46;100282.00;;;17.90
4421;BMP180;11824;51.178;13.546;2024-03-22T11:08:22;100278.00;;;18.00
4421;BMP180;11824;51.178;13.546;2024-03-22T11:10:49;100278.00;;;18.00
4421;BMP180;11824;51.178;13.546;2024-03-22T11:13:18;100270.00;;;18.00
4421;BMP180;11824;51.178;13.546;2024-03-22T11:15:47;100264.00;;;17.90
4421;BMP180;11824;51.178;13.546;2024-03-22T11:18:15;100249.00;;;17.90
4421;BMP180;11824;51.178;13.546;2024-03-22T11:20:43;100247.00;;;17.80
4421;BMP180;11824;51.178;13.546;2024-03-22T11:23:11;100247.00;;;17.80
4421;BMP180;11824;51.178;13.546;2024-03-22T11:25:38;100240.00;;;17.70
4421;BMP180;11824;51.178;13.546;2024-03-22T11:28:06;100236.00;;;17.80
4421;BMP180;11824;51.178;13.546;2024-03-22T11:30:33;100241.00;;;17.90
4421;BMP180;11824;51.178;13.546;2024-03-22T11:33:03;100239.00;;;17.90
4421;BMP180;11824;51.178;13.546;2024-03-22T11:35:30;100240.00;;;17.90
4421;BMP180;11824;51.178;13.546;2024-03-22T11:37:58;100238.00;;;17.80
4421;BMP180;11824;51.178;13.546;2024-03-22T11:40:26;100229.00;;;17.80
4421;BMP180;11824;51.178;13.546;2024-03-22T11:42:56;100223.00;;;17.90
4421;BMP180;11824;51.178;13.546;2024-03-22T11:45:24;100208.00;;;17.80
4421;BMP180;11824;51.178;13.546;2024-03-22T11:47:53;100219.00;;;17.80
4421;BMP180;11824;51.178;13.546;2024-03-22T11:50:21;100201.00;;;17.80
4421;BMP180;11824;51.178;13.546;2024-03-22T11:52:49;100203.00;;;17.80
4421;BMP180;11824;51.178;13.546;2024-03-22T11:55:16;100205.00;;;17.80
4421;BMP180;11824;51.178;13.546;2024-03-22T11:57:48;100208.00;;;17.80
4421;BMP180;11824;51.178;13.546;2024-03-22T12:00:16;100200.00;;;17.80
4421;BMP180;11824;51.178;13.546;2024-03-22T12:02:45;100204.00;;;17.80
4421;BMP180;11824;51.178;13.546;2024-03-22T12:05:12;100191.00;;;17.90
4421;BMP180;11824;51.178;13.546;2024-03-22T12:07:41;100192.00;;;17.90
4421;BMP180;11824;51.178;13.546;2024-03-22T12:10:08;100192.00;;;17.90
4421;BMP180;11824;51.178;13.546;2024-03-22T12:12:36;100187.00;;;17.90
4421;BMP180;11824;51.178;13.546;2024-03-22T12:15:03;100182.00;;;17.90
4421;BMP180;11824;51.178;13.546;2024-03-22T12:17:31;100188.00;;;17.90
4421;BMP180;11824;51.178;13.546;2024-03-22T12:19:58;100190.00;;;17.90
4421;BMP180;11824;51.178;13.546;2024-03-22T12:22:25;100176.00;;;17.90
4421;BMP180;11824;51.178;13.546;2024-03-22T12:24:53;100185.00;;;18.00
4421;BMP180;11824;51.178;13.546;2024-03-22T12:27:21;100178.00;;;18.00
4421;BMP180;11824;51.178;13.546;2024-03-22T12:29:48;100165.00;;;18.00
4421;BMP180;11824;51.178;13.546;2024-03-22T12:32:16;100168.00;;;18.00
4421;BMP180;11824;51.178;13.546;2024-03-22T12:34:42;100155.00;;;17.90
4421;BMP180;11824;51.178;13.546;2024-03-22T12:37:10;100154.00;;;17.90
4421;BMP180;11824;51.178;13.546;2024-03-22T12:39:37;100147.00;;;17.80
4421;BMP180;11824;51.178;13.546;2024-03-22T12:42:06;100149.00;;;17.80
4421;BMP180;11824;51.178;13.546;2024-03-22T12:44:33;100142.00;;;17.80
4421;BMP180;11824;51.178;13.546;2024-03-22T12:47:01;100137.00;;;17.80
4421;BMP180;11824;51.178;13.546;2024-03-22T12:49:28;100134.00;;;17.70
4421;BMP180;11824;51.178;13.546;2024-03-22T12:51:56;100130.00;;;17.70
4421;BMP180;11824;51.178;13.546;2024-03-22T12:54:23;100130.00;;;17.70
4421;BMP180;11824;51.178;13.546;2024-03-22T12:56:51;100120.00;;;17.60
4421;BMP180;11824;51.178;13.546;2024-03-22T12:59:20;100121.00;;;17.60
4421;BMP180;11824;51.178;13.546;2024-03-22T13:01:47;100109.00;;;17.70
4421;BMP180;11824;51.178;13.546;2024-03-22T13:04:15;100112.00;;;17.70
4421;BMP180;11824;51.178;13.546;2024-03-22T13:06:44;100102.00;;;17.70
4421;BMP180;11824;51.178;13.546;2024-03-22T13:09:11;100101.00;;;17.70
4421;BMP180;11824;51.178;13.546;2024-03-22T13:11:39;100102.00;;;17.80
4421;BMP180;11824;51.178;13.546;2024-03-22T13:14:07;100099.00;;;17.80
4421;BMP180;11824;51.178;13.546;2024-03-22T13:16:37;100103.00;;;17.80
4421;BMP180;11824;51.178;13.546;2024-03-22T13:19:03;100097.00;;;17.80
4421;BMP180;11824;51.178;13.546;2024-03-22T13:21:31;100091.00;;;17.80
4421;BMP180;11824;51.178;13.546;2024-03-22T13:23:58;100089.00;;;17.80
4421;BMP180;11824;51.178;13.546;2024-03-22T13:26:26;100082.00;;;17.80
4421;BMP180;11824;51.178;13.546;2024-03-22T13:28:53;100086.00;;;17.80
4421;BMP180;11824;51.178;13.546;2024-03-22T13:31:20;100083.00;;;17.80
4421;BMP180;11824;51.178;13.546;2024-03-22T13:33:49;100067.00;;;17.70
4421;BMP180;11824;51.178;13.546;2024-03-22T13:36:16;100064.00;;;17.70
4421;BMP180;11824;51.178;13.546;2024-03-22T13:38:44;100053.00;;;17.70
4421;BMP180;11824;51.178;13.546;2024-03-22T13:41:12;100043.00;;;17.70
4421;BMP180;11824;51.178;13.546;2024-03-22T13:43:39;100054.00;;;17.60
4421;BMP180;11824;51.178;13.546;2024-03-22T13:46:08;100047.00;;;17.60
4421;BMP180;11824;51.178;13.546;2024-03-22T13:48:38;100041.00;;;17.60
4421;BMP180;11824;51.178;13.546;2024-03-22T13:51:07;100042.00;;;17.50
4421;BMP180;11824;51.178;13.546;2024-03-22T13:53:35;100026.00;;;17.50
4421;BMP180;11824;51.178;13.546;2024-03-22T13:56:03;100024.00;;;17.50
4421;BMP180;11824;51.178;13.546;2024-03-22T13:58:30;100026.00;;;17.50
4421;BMP180;11824;51.178;13.546;2024-03-22T14:00:59;100018.00;;;17.50
4421;BMP180;11824;51.178;13.546;2024-03-22T14:03:26;100013.00;;;17.50
4421;BMP180;11824;51.178;13.546;2024-03-22T14:05:54;100023.00;;;17.40